Wetterdaten: Woche 24.11.14 - 30.11.14 (KW48)
Datum Zeit Temp. Aussen +5cm Feuchte Auss Luftdruck Regen Sonnenschein Regendauer Solar Windben
24.11.2014 00:00 9,6 C 8,3 C 91 % 1015,6 hPa 0,0 l/m 0,00 h 0,00 h 0 W/m 11,2 km/h (2 Bft)
24.11.2014 01:00 9,8 C 8,5 C 91 % 1016,1 hPa 0,0 l/m 0,00 h 0,00 h 0 W/m 9,0 km/h (2 Bft)
24.11.2014 02:00 10,4 C 8,9 C 93 % 1017,1 hPa 0,2 l/m 0,00 h 0,07 h 0 W/m 18,8 km/h (3 Bft)
24.11.2014 03:00 9,7 C 7,9 C 95 % 1018,4 hPa 0,4 l/m 0,00 h 1,00 h 0 W/m 15,1 km/h (3 Bft)
24.11.2014 04:00 9,2 C 7,8 C 96 % 1019,0 hPa 1,4 l/m 0,00 h 0,97 h 0 W/m 6,7 km/h (2 Bft)
24.11.2014 05:00 9,1 C 7,8 C 96 % 1020,3 hPa 1,0 l/m 0,00 h 0,67 h 0 W/m 13,5 km/h (3 Bft)
24.11.2014 06:00 8,6 C 7,2 C 97 % 1021,5 hPa 0,0 l/m 0,00 h 0,00 h 0 W/m 17,0 km/h (3 Bft)
24.11.2014 07:00 8,0 C 6,2 C 97 % 1022,5 hPa 0,0 l/m 0,00 h 0,00 h 0 W/m 8,1 km/h (2 Bft)
24.11.2014 08:00 6,8 C 4,3 C 96 % 1023,2 hPa 0,0 l/m 0,00 h 0,00 h 11 W/m 2,8 km/h (1 Bft)
24.11.2014 09:00 6,0 C 4,7 C 96 % 1024,1 hPa 0,0 l/m 0,70 h 0,00 h 93 W/m 4,8 km/h (1 Bft)
24.11.2014 10:00 7,4 C 6,3 C 97 % 1024,8 hPa 0,0 l/m 1,00 h 0,00 h 197 W/m 6,2 km/h (2 Bft)
24.11.2014 11:00 9,1 C 7,2 C 97 % 1025,1 hPa 0,0 l/m 1,00 h 0,00 h 262 W/m 7,6 km/h (2 Bft)
24.11.2014 12:00 10,7 C 7,6 C 82 % 1025,1 hPa 0,0 l/m 0,97 h 0,00 h 291 W/m 6,8 km/h (2 Bft)
24.11.2014 13:00 11,4 C 8,3 C 71 % 1025,2 hPa 0,0 l/m 1,00 h 0,00 h 247 W/m 8,8 km/h (2 Bft)
24.11.2014 14:00 11,2 C 8,3 C 72 % 1025,3 hPa 0,0 l/m 0,90 h 0,00 h 156 W/m 9,7 km/h (2 Bft)
24.11.2014 15:00 10,2 C 6,6 C 73 % 1025,6 hPa 0,0 l/m 0,00 h 0,00 h 44 W/m 5,0 km/h (1 Bft)
24.11.2014 16:00 8,3 C 4,5 C 80 % 1025,9 hPa 0,0 l/m 0,00 h 0,00 h 10 W/m 2,2 km/h (1 Bft)
24.11.2014 17:00 6,3 C 3,2 C 84 % 1026,2 hPa 0,0 l/m 0,00 h 0,00 h 0 W/m 1,5 km/h (1 Bft)
24.11.2014 18:00 4,9 C 2,5 C 87 % 1026,6 hPa 0,0 l/m 0,00 h 0,00 h 0 W/m 1,2 km/h (1 Bft)
24.11.2014 19:00 3,9 C 1,9 C 89 % 1026,8 hPa 0,0 l/m 0,00 h 0,00 h 0 W/m 2,6 km/h (1 Bft)
24.11.2014 20:00 3,2 C 1,4 C 91 % 1027,1 hPa 0,0 l/m 0,00 h 0,00 h 0 W/m 2,4 km/h (1 Bft)
24.11.2014 21:00 2,5 C 1,0 C 92 % 1027,2 hPa 0,0 l/m 0,00 h 0,00 h 0 W/m 1,5 km/h (1 Bft)
24.11.2014 22:00 1,8 C 0,6 C 92 % 1027,1 hPa 0,0 l/m 0,00 h 0,00 h 0 W/m 2,3 km/h (1 Bft)
24.11.2014 23:00 1,4 C 0,1 C 93 % 1027,2 hPa 0,0 l/m 0,00 h 0,00 h 0 W/m 2,0 km/h (1 Bft)
25.11.2014 00:00 1,0 C -0,2 C 94 % 1026,9 hPa 0,0 l/m 0,00 h 0,00 h 0 W/m 2,7 km/h (1 Bft)
25.11.2014 01:00 0,7 C -0,4 C 94 % 1026,7 hPa 0,0 l/m 0,00 h 0,00 h 0 W/m 1,7 km/h (1 Bft)
25.11.2014 02:00 0,2 C -1,0 C 94 % 1026,7 hPa 0,0 l/m 0,00 h 0,00 h 0 W/m 0,4 km/h (0 Bft)
25.11.2014 03:00 -0,4 C -1,1 C 94 % 1026,5 hPa 0,0 l/m 0,00 h 0,00 h 0 W/m 1,7 km/h (1 Bft)
25.11.2014 04:00 -0,7 C -1,6 C 95 % 1026,4 hPa 0,0 l/m 0,00 h 0,00 h 0 W/m 0,8 km/h (0 Bft)
25.11.2014 05:00 -0,8 C -1,7 C 95 % 1026,3 hPa 0,0 l/m 0,00 h 0,00 h 0 W/m 0,9 km/h (0 Bft)
25.11.2014 06:00 -1,1 C -1,9 C 95 % 1026,0 hPa 0,0 l/m 0,00 h 0,00 h 0 W/m 1,0 km/h (0 Bft)
25.11.2014 07:00 -1,3 C -2,1 C 95 % 1025,9 hPa 0,0 l/m 0,00 h 0,00 h 0 W/m 1,7 km/h (1 Bft)
25.11.2014 08:00 -1,5 C -2,0 C 95 % 1025,8 hPa 0,0 l/m 0,17 h 0,00 h 24 W/m 2,0 km/h (1 Bft)
25.11.2014 09:00 -1,0 C -1,1 C 96 % 1025,8 hPa 0,0 l/m 1,00 h 0,00 h 110 W/m 3,6 km/h (1 Bft)
25.11.2014 10:00 1,4 C 0,8 C 97 % 1025,6 hPa 0,2 l/m 1,00 h 0,00 h 201 W/m 3,7 km/h (1 Bft)
25.11.2014 11:00 5,1 C 3,4 C 98 % 1025,3 hPa 0,0 l/m 1,00 h 0,00 h 275 W/m 7,1 km/h (2 Bft)
25.11.2014 12:00 7,9 C 5,9 C 93 % 1024,5 hPa 0,0 l/m 0,98 h 0,00 h 306 W/m 13,0 km/h (3 Bft)
25.11.2014 13:00 10,0 C 7,0 C 79 % 1023,7 hPa 0,0 l/m 1,00 h 0,00 h 249 W/m 10,3 km/h (2 Bft)
25.11.2014 14:00 10,6 C 7,5 C 73 % 1022,8 hPa 0,0 l/m 0,80 h 0,00 h 150 W/m 13,0 km/h (3 Bft)
25.11.2014 15:00 9,7 C 6,2 C 75 % 1022,2 hPa 0,0 l/m 0,00 h 0,00 h 49 W/m 12,6 km/h (3 Bft)
25.11.2014 16:00 8,0 C 4,2 C 80 % 1021,9 hPa 0,0 l/m 0,03 h 0,00 h 10 W/m 10,8 km/h (2 Bft)
25.11.2014 17:00 6,7 C 3,9 C 85 % 1021,8 hPa 0,0 l/m 0,00 h 0,00 h 0 W/m 13,6 km/h (3 Bft)
25.11.2014 18:00 5,9 C 3,4 C 88 % 1021,7 hPa 0,0 l/m 0,00 h 0,00 h 0 W/m 12,6 km/h (3 Bft)
25.11.2014 19:00 5,2 C 3,1 C 91 % 1021,4 hPa 0,0 l/m 0,00 h 0,00 h 0 W/m 10,6 km/h (2 Bft)
25.11.2014 20:00 4,6 C 2,9 C 92 % 1021,0 hPa 0,0 l/m 0,00 h 0,00 h 0 W/m 12,8 km/h (3 Bft)
25.11.2014 21:00 4,0 C 2,4 C 93 % 1020,7 hPa 0,0 l/m 0,00 h 0,00 h 0 W/m 11,3 km/h (2 Bft)
25.11.2014 22:00 3,5 C 2,1 C 93 % 1020,4 hPa 0,0 l/m 0,00 h 0,00 h 0 W/m 11,7 km/h (2 Bft)
25.11.2014 23:00 3,0 C 1,6 C 93 % 1020,0 hPa 0,0 l/m 0,00 h 0,00 h 0 W/m 11,5 km/h (2 Bft)
26.11.2014 00:00 2,4 C 0,7 C 93 % 1019,5 hPa 0,0 l/m 0,00 h 0,00 h 0 W/m 6,9 km/h (2 Bft)
26.11.2014 01:00 2,5 C 2,0 C 94 % 1018,8 hPa 0,0 l/m 0,00 h 0,00 h 0 W/m 15,9 km/h (3 Bft)
26.11.2014 02:00 4,5 C 3,7 C 93 % 1018,3 hPa 0,0 l/m 0,00 h 0,00 h 0 W/m 20,7 km/h (4 Bft)
26.11.2014 03:00 5,3 C 4,0 C 88 % 1017,6 hPa 0,0 l/m 0,00 h 0,00 h 0 W/m 24,7 km/h (4 Bft)
26.11.2014 04:00 5,3 C 3,9 C 86 % 1017,0 hPa 0,0 l/m 0,00 h 0,00 h 0 W/m 25,8 km/h (4 Bft)
26.11.2014 05:00 4,9 C 3,4 C 86 % 1016,7 hPa 0,0 l/m 0,00 h 0,00 h 0 W/m 25,8 km/h (4 Bft)
26.11.2014 06:00 4,5 C 3,3 C 87 % 1016,4 hPa 0,0 l/m 0,00 h 0,00 h 0 W/m 25,3 km/h (4 Bft)
26.11.2014 07:00 4,4 C 3,3 C 87 % 1016,1 hPa 0,0 l/m 0,00 h 0,00 h 0 W/m 22,6 km/h (4 Bft)
26.11.2014 08:00 4,2 C 3,3 C 86 % 1016,1 hPa 0,0 l/m 0,00 h 0,00 h 18 W/m 24,0 km/h (4 Bft)
26.11.2014 09:00 4,5 C 3,6 C 85 % 1015,8 hPa 0,0 l/m 0,00 h 0,00 h 63 W/m 28,5 km/h (4 Bft)
26.11.2014 10:00 4,9 C 4,1 C 84 % 1015,7 hPa 0,0 l/m 0,00 h 0,00 h 110 W/m 28,9 km/h (5 Bft)
26.11.2014 11:00 5,5 C 4,7 C 84 % 1015,3 hPa 0,0 l/m 0,00 h 0,00 h 129 W/m 28,7 km/h (4 Bft)
26.11.2014 12:00 5,9 C 5,2 C 84 % 1014,8 hPa 0,0 l/m 0,00 h 0,00 h 113 W/m 25,0 km/h (4 Bft)
26.11.2014 13:00 6,2 C 5,6 C 83 % 1014,3 hPa 0,0 l/m 0,00 h 0,00 h 97 W/m 28,6 km/h (4 Bft)
26.11.2014 14:00 6,4 C 5,5 C 83 % 1013,7 hPa 0,0 l/m 0,33 h 0,00 h 108 W/m 27,1 km/h (4 Bft)
26.11.2014 15:00 6,2 C 5,0 C 85 % 1013,4 hPa 0,0 l/m 0,23 h 0,00 h 55 W/m 26,9 km/h (4 Bft)
26.11.2014 16:00 5,5 C 4,2 C 88 % 1013,1 hPa 0,0 l/m 0,00 h 0,03 h 10 W/m 29,2 km/h (5 Bft)
26.11.2014 17:00 5,3 C 4,3 C 89 % 1012,9 hPa 0,0 l/m 0,00 h 0,03 h 0 W/m 28,5 km/h (4 Bft)
26.11.2014 18:00 5,3 C 4,4 C 89 % 1012,7 hPa 0,0 l/m 0,00 h 0,00 h 0 W/m 27,5 km/h (4 Bft)
26.11.2014 19:00 5,5 C 4,4 C 88 % 1012,6 hPa 0,0 l/m 0,00 h 0,07 h 0 W/m 27,3 km/h (4 Bft)
26.11.2014 20:00 5,7 C 4,4 C 87 % 1012,4 hPa 0,0 l/m 0,00 h 0,00 h 0 W/m 30,7 km/h (5 Bft)
26.11.2014 21:00 5,6 C 4,4 C 89 % 1012,3 hPa 0,0 l/m 0,00 h 0,10 h 0 W/m 28,2 km/h (4 Bft)
26.11.2014 22:00 5,5 C 4,4 C 90 % 1012,1 hPa 0,0 l/m 0,00 h 0,00 h 0 W/m 26,6 km/h (4 Bft)
26.11.2014 23:00 5,7 C 4,4 C 89 % 1011,8 hPa 0,0 l/m 0,00 h 0,03 h 0 W/m 26,4 km/h (4 Bft)
27.11.2014 00:00 5,6 C 4,4 C 90 % 1011,4 hPa 0,0 l/m 0,00 h 0,00 h 0 W/m 23,7 km/h (4 Bft)
27.11.2014 01:00 5,7 C 4,4 C 89 % 1010,8 hPa 0,0 l/m 0,00 h 0,00 h 0 W/m 22,2 km/h (4 Bft)
27.11.2014 02:00 5,7 C 4,4 C 89 % 1010,2 hPa 0,0 l/m 0,00 h 0,00 h 0 W/m 24,1 km/h (4 Bft)
27.11.2014 03:00 5,6 C 4,2 C 90 % 1009,8 hPa 0,0 l/m 0,00 h 0,00 h 0 W/m 20,5 km/h (4 Bft)
27.11.2014 04:00 5,2 C 4,1 C 90 % 1009,4 hPa 0,0 l/m 0,00 h 0,00 h 0 W/m 20,6 km/h (4 Bft)
27.11.2014 05:00 5,3 C 4,4 C 90 % 1009,1 hPa 0,0 l/m 0,00 h 0,00 h 0 W/m 20,0 km/h (4 Bft)
27.11.2014 06:00 5,4 C 4,2 C 89 % 1008,9 hPa 0,0 l/m 0,00 h 0,00 h 0 W/m 18,2 km/h (3 Bft)
27.11.2014 07:00 5,5 C 4,4 C 89 % 1008,8 hPa 0,0 l/m 0,00 h 0,00 h 0 W/m 18,9 km/h (3 Bft)
27.11.2014 08:00 5,8 C 4,8 C 88 % 1008,8 hPa 0,0 l/m 0,00 h 0,00 h 14 W/m 18,9 km/h (3 Bft)
27.11.2014 09:00 6,2 C 5,3 C 88 % 1008,8 hPa 0,0 l/m 0,20 h 0,00 h 74 W/m 20,5 km/h (4 Bft)
27.11.2014 10:00 6,8 C 6,3 C 87 % 1008,7 hPa 0,0 l/m 0,00 h 0,00 h 89 W/m 22,0 km/h (4 Bft)
27.11.2014 11:00 7,5 C 7,0 C 86 % 1008,3 hPa 0,0 l/m 0,00 h 0,00 h 134 W/m 21,7 km/h (4 Bft)
27.11.2014 12:00 7,7 C 6,4 C 85 % 1008,0 hPa 0,0 l/m 0,00 h 0,47 h 73 W/m 20,0 km/h (4 Bft)
27.11.2014 13:00 7,7 C 6,3 C 88 % 1007,3 hPa 0,2 l/m 0,03 h 0,27 h 115 W/m 22,1 km/h (4 Bft)
27.11.2014 14:00 7,9 C 6,9 C 87 % 1006,9 hPa 0,0 l/m 0,00 h 0,13 h 66 W/m 24,8 km/h (4 Bft)
27.11.2014 15:00 7,7 C 6,1 C 88 % 1006,8 hPa 0,0 l/m 0,00 h 0,77 h 26 W/m 20,1 km/h (4 Bft)
27.11.2014 16:00 7,1 C 5,2 C 91 % 1006,8 hPa 0,2 l/m 0,00 h 1,00 h 8 W/m 20,1 km/h (4 Bft)
27.11.2014 17:00 6,7 C 5,0 C 93 % 1006,8 hPa 0,2 l/m 0,00 h 1,00 h 0 W/m 30,4 km/h (5 Bft)
27.11.2014 18:00 6,4 C 4,6 C 93 % 1006,8 hPa 0,6 l/m 0,00 h 0,98 h 0 W/m 27,6 km/h (4 Bft)
27.11.2014 19:00 6,0 C 4,4 C 95 % 1006,9 hPa 0,6 l/m 0,00 h 1,00 h 0 W/m 23,8 km/h (4 Bft)
27.11.2014 20:00 5,8 C 4,4 C 95 % 1006,8 hPa 0,6 l/m 0,00 h 0,97 h 0 W/m 25,8 km/h (4 Bft)
27.11.2014 21:00 5,7 C 4,4 C 96 % 1006,9 hPa 0,2 l/m 0,00 h 0,00 h 0 W/m 28,5 km/h (4 Bft)
27.11.2014 22:00 5,7 C 4,3 C 95 % 1006,9 hPa 0,0 l/m 0,00 h 0,00 h 0 W/m 28,2 km/h (4 Bft)
27.11.2014 23:00 5,7 C 3,9 C 94 % 1006,9 hPa 0,0 l/m 0,00 h 0,00 h 0 W/m 27,3 km/h (4 Bft)
28.11.2014 00:00 5,7 C 4,1 C 94 % 1007,0 hPa 0,0 l/m 0,00 h 0,00 h 0 W/m 29,0 km/h (5 Bft)
28.11.2014 01:00 6,0 C 4,4 C 93 % 1007,1 hPa 0,0 l/m 0,00 h 0,00 h 0 W/m 28,7 km/h (4 Bft)
28.11.2014 02:00 6,1 C 4,4 C 93 % 1007,2 hPa 0,0 l/m 0,00 h 0,00 h 0 W/m 25,0 km/h (4 Bft)
28.11.2014 03:00 6,1 C 4,4 C 93 % 1007,2 hPa 0,0 l/m 0,00 h 0,00 h 0 W/m 26,1 km/h (4 Bft)
28.11.2014 04:00 5,8 C 4,4 C 93 % 1007,3 hPa 0,0 l/m 0,00 h 0,00 h 0 W/m 27,8 km/h (4 Bft)
28.11.2014 05:00 5,8 C 4,4 C 92 % 1007,2 hPa 0,0 l/m 0,00 h 0,00 h 0 W/m 26,9 km/h (4 Bft)
28.11.2014 06:00 5,8 C 4,4 C 91 % 1007,4 hPa 0,0 l/m 0,00 h 0,00 h 0 W/m 26,9 km/h (4 Bft)
28.11.2014 07:00 5,8 C 4,1 C 90 % 1007,6 hPa 0,0 l/m 0,00 h 0,00 h 0 W/m 27,5 km/h (4 Bft)
28.11.2014 08:00 5,8 C 4,1 C 90 % 1008,2 hPa 0,0 l/m 0,00 h 0,30 h 11 W/m 26,2 km/h (4 Bft)
28.11.2014 09:00 6,0 C 4,5 C 91 % 1008,4 hPa 0,0 l/m 0,00 h 0,07 h 46 W/m 28,5 km/h (4 Bft)
28.11.2014 10:00 6,5 C 5,6 C 90 % 1008,9 hPa 0,0 l/m 0,00 h 0,00 h 82 W/m 28,0 km/h (4 Bft)
28.11.2014 11:00 7,1 C 6,4 C 88 % 1008,8 hPa 0,0 l/m 0,07 h 0,00 h 114 W/m 27,8 km/h (4 Bft)
28.11.2014 12:00 8,4 C 7,1 C 85 % 1008,6 hPa 0,0 l/m 0,65 h 0,00 h 208 W/m 25,2 km/h (4 Bft)
28.11.2014 13:00 8,7 C 7,2 C 83 % 1008,6 hPa 0,0 l/m 0,00 h 0,00 h 80 W/m 21,8 km/h (4 Bft)
28.11.2014 14:00 8,6 C 7,4 C 84 % 1008,5 hPa 0,0 l/m 0,00 h 0,00 h 76 W/m 18,0 km/h (3 Bft)
28.11.2014 15:00 8,3 C 6,9 C 85 % 1008,9 hPa 0,0 l/m 0,03 h 0,00 h 39 W/m 19,1 km/h (3 Bft)
28.11.2014 16:00 7,8 C 6,0 C 85 % 1009,3 hPa 0,0 l/m 0,13 h 0,00 h 15 W/m 17,2 km/h (3 Bft)
28.11.2014 17:00 6,6 C 4,6 C 87 % 1010,0 hPa 0,0 l/m 0,00 h 0,00 h 26 W/m 13,2 km/h (3 Bft)
28.11.2014 18:00 5,6 C 3,9 C 89 % 1010,6 hPa 0,0 l/m 0,00 h 0,00 h 0 W/m 13,9 km/h (3 Bft)
28.11.2014 19:00 5,2 C 3,9 C 90 % 1011,0 hPa 0,0 l/m 0,00 h 0,00 h 0 W/m 24,4 km/h (4 Bft)
28.11.2014 20:00 5,1 C 3,7 C 89 % 1011,3 hPa 0,0 l/m 0,00 h 0,00 h 0 W/m 24,3 km/h (4 Bft)
28.11.2014 21:00 4,6 C 3,2 C 90 % 1011,8 hPa 0,0 l/m 0,00 h 0,00 h 0 W/m 20,8 km/h (4 Bft)
28.11.2014 22:00 4,2 C 2,9 C 91 % 1012,1 hPa 0,0 l/m 0,00 h 0,00 h 0 W/m 23,8 km/h (4 Bft)
28.11.2014 23:00 4,2 C 3,3 C 91 % 1012,5 hPa 0,0 l/m 0,00 h 0,00 h 0 W/m 19,6 km/h (3 Bft)
29.11.2014 00:00 4,2 C 3,0 C 91 % 1012,6 hPa 0,0 l/m 0,00 h 0,00 h 0 W/m 19,7 km/h (3 Bft)
29.11.2014 01:00 3,8 C 2,8 C 91 % 1012,5 hPa 0,0 l/m 0,00 h 0,00 h 0 W/m 21,0 km/h (4 Bft)
29.11.2014 02:00 3,6 C 2,8 C 91 % 1012,7 hPa 0,0 l/m 0,00 h 0,00 h 0 W/m 22,6 km/h (4 Bft)
29.11.2014 03:00 3,5 C 2,3 C 91 % 1012,9 hPa 0,0 l/m 0,00 h 0,00 h 0 W/m 20,2 km/h (4 Bft)
29.11.2014 04:00 3,4 C 2,4 C 91 % 1013,0 hPa 0,0 l/m 0,00 h 0,00 h 0 W/m 21,8 km/h (4 Bft)
29.11.2014 05:00 3,4 C 2,2 C 91 % 1013,1 hPa 0,0 l/m 0,00 h 0,00 h 0 W/m 19,6 km/h (3 Bft)
29.11.2014 06:00 3,5 C 2,6 C 92 % 1013,3 hPa 0,0 l/m 0,00 h 0,00 h 0 W/m 20,7 km/h (4 Bft)
29.11.2014 07:00 3,6 C 2,8 C 92 % 1013,9 hPa 0,0 l/m 0,00 h 0,00 h 0 W/m 21,0 km/h (4 Bft)
29.11.2014 08:00 3,5 C 2,8 C 91 % 1014,3 hPa 0,0 l/m 0,00 h 0,00 h 15 W/m 20,4 km/h (4 Bft)
29.11.2014 09:00 3,7 C 3,0 C 91 % 1014,8 hPa 0,0 l/m 0,00 h 0,00 h 51 W/m 21,7 km/h (4 Bft)
29.11.2014 10:00 4,3 C 3,9 C 90 % 1014,9 hPa 0,0 l/m 0,07 h 0,00 h 116 W/m 22,1 km/h (4 Bft)
29.11.2014 11:00 4,7 C 4,2 C 88 % 1014,9 hPa 0,0 l/m 0,13 h 0,00 h 130 W/m 24,6 km/h (4 Bft)
29.11.2014 12:00 5,3 C 4,8 C 87 % 1014,7 hPa 0,0 l/m 0,67 h 0,00 h 185 W/m 20,4 km/h (4 Bft)
29.11.2014 13:00 5,7 C 4,9 C 85 % 1014,3 hPa 0,0 l/m 0,30 h 0,00 h 145 W/m 18,7 km/h (3 Bft)
29.11.2014 14:00 5,4 C 4,3 C 85 % 1014,2 hPa 0,0 l/m 0,00 h 0,00 h 72 W/m 19,8 km/h (3 Bft)
29.11.2014 15:00 4,7 C 3,4 C 86 % 1014,4 hPa 0,0 l/m 0,07 h 0,00 h 48 W/m 17,9 km/h (3 Bft)
29.11.2014 16:00 4,1 C 2,5 C 88 % 1014,3 hPa 0,0 l/m 0,23 h 0,00 h 15 W/m 15,5 km/h (3 Bft)
29.11.2014 17:00 3,4 C 1,8 C 90 % 1014,7 hPa 0,0 l/m 0,00 h 0,00 h 0 W/m 12,6 km/h (3 Bft)
29.11.2014 18:00 2,9 C 1,7 C 91 % 1014,7 hPa 0,0 l/m 0,00 h 0,00 h 0 W/m 12,5 km/h (3 Bft)
29.11.2014 19:00 2,8 C 2,0 C 93 % 1015,1 hPa 0,0 l/m 0,00 h 0,00 h 0 W/m 13,0 km/h (3 Bft)
29.11.2014 20:00 3,3 C 2,7 C 93 % 1015,2 hPa 0,0 l/m 0,00 h 0,00 h 0 W/m 15,1 km/h (3 Bft)
29.11.2014 21:00 3,6 C 2,8 C 92 % 1015,2 hPa 0,0 l/m 0,00 h 0,00 h 0 W/m 15,9 km/h (3 Bft)
29.11.2014 22:00 3,6 C 2,8 C 91 % 1014,9 hPa 0,0 l/m 0,00 h 0,00 h 0 W/m 16,6 km/h (3 Bft)
29.11.2014 23:00 3,6 C 2,8 C 91 % 1014,6 hPa 0,0 l/m 0,00 h 0,00 h 0 W/m 17,9 km/h (3 Bft)
30.11.2014 00:00 3,6 C 2,8 C 91 % 1014,5 hPa 0,0 l/m 0,00 h 0,00 h 0 W/m 16,2 km/h (3 Bft)
30.11.2014 01:00 3,6 C 2,8 C 91 % 1014,5 hPa 0,0 l/m 0,00 h 0,00 h 0 W/m 12,4 km/h (3 Bft)
30.11.2014 02:00 3,6 C 2,8 C 91 % 1014,1 hPa 0,0 l/m 0,00 h 0,00 h 0 W/m 15,8 km/h (3 Bft)
30.11.2014 03:00 3,6 C 2,8 C 92 % 1013,9 hPa 0,0 l/m 0,00 h 0,00 h 0 W/m 11,0 km/h (2 Bft)
30.11.2014 04:00 3,6 C 2,8 C 92 % 1013,4 hPa 0,0 l/m 0,00 h 0,00 h 0 W/m 10,4 km/h (2 Bft)
30.11.2014 05:00 3,5 C 2,8 C 92 % 1013,5 hPa 0,0 l/m 0,00 h 0,00 h 0 W/m 8,0 km/h (2 Bft)
30.11.2014 06:00 3,4 C 2,8 C 92 % 1013,2 hPa 0,0 l/m 0,00 h 0,00 h 0 W/m 13,3 km/h (3 Bft)
30.11.2014 07:00 3,3 C 2,8 C 92 % 1013,3 hPa 0,0 l/m 0,00 h 0,00 h 0 W/m 13,2 km/h (3 Bft)
30.11.2014 08:00 3,3 C 2,8 C 93 % 1013,5 hPa 0,0 l/m 0,00 h 0,00 h 7 W/m 11,6 km/h (2 Bft)
30.11.2014 09:00 3,4 C 2,8 C 93 % 1013,5 hPa 0,0 l/m 0,00 h 0,00 h 22 W/m 13,6 km/h (3 Bft)
30.11.2014 10:00 3,6 C 3,0 C 93 % 1013,5 hPa 0,0 l/m 0,00 h 0,00 h 37 W/m 11,0 km/h (2 Bft)
30.11.2014 11:00 3,8 C 3,3 C 93 % 1013,1 hPa 0,0 l/m 0,00 h 0,00 h 45 W/m 12,8 km/h (3 Bft)
30.11.2014 12:00 3,9 C 3,3 C 92 % 1012,3 hPa 0,0 l/m 0,00 h 0,00 h 49 W/m 12,6 km/h (3 Bft)
30.11.2014 13:00 4,0 C 3,3 C 92 % 1012,0 hPa 0,0 l/m 0,00 h 0,00 h 35 W/m 11,4 km/h (2 Bft)
30.11.2014 14:00 4,0 C 3,3 C 92 % 1011,4 hPa 0,0 l/m 0,00 h 0,00 h 27 W/m 11,7 km/h (2 Bft)
30.11.2014 15:00 3,9 C 3,3 C 92 % 1011,2 hPa 0,0 l/m 0,00 h 0,00 h 13 W/m 9,7 km/h (2 Bft)
30.11.2014 16:00 3,9 C 2,9 C 93 % 1011,3 hPa 0,0 l/m 0,00 h 0,00 h 0 W/m 9,4 km/h (2 Bft)
30.11.2014 17:00 3,8 C 2,8 C 93 % 1011,1 hPa 0,0 l/m 0,00 h 0,00 h 0 W/m 9,5 km/h (2 Bft)
30.11.2014 18:00 3,8 C 2,8 C 93 % 1011,2 hPa 0,0 l/m 0,00 h 0,00 h 0 W/m 8,8 km/h (2 Bft)
30.11.2014 19:00 3,8 C 2,8 C 93 % 1011,2 hPa 0,0 l/m 0,00 h 0,00 h 0 W/m 10,8 km/h (2 Bft)
30.11.2014 20:00 3,6 C 2,8 C 93 % 1011,4 hPa 0,0 l/m 0,00 h 0,00 h 0 W/m 11,0 km/h (2 Bft)
30.11.2014 21:00 3,4 C 2,8 C 93 % 1011,3 hPa 0,0 l/m 0,00 h 0,00 h 0 W/m 11,8 km/h (2 Bft)
30.11.2014 22:00 3,3 C 2,8 C 93 % 1011,4 hPa 0,0 l/m 0,00 h 0,00 h 0 W/m 10,6 km/h (2 Bft)
30.11.2014 23:00 3,2 C 2,2 C 93 % 1011,4 hPa 0,0 l/m 0,00 h 0,00 h 0 W/m 13,8 km/h (3 Bft)
Min-Datum _ 25.11.14 25.11.14 24.11.14 27.11.14 - - - - 24.11.14
_ Min-Zeit 08:12 06:36 13:12 16:12 - - - - 08:44
Minimum _ -1,6 C -2,2 C 70 % 1006,7 hPa - - - - 0,0 km/h (0 Bft)
Max-Datum _ 24.11.14 24.11.14 24.11.14 24.11.14 24.11.14 24.11.14 24.11.14 25.11.14 26.11.14
_ Max-Zeit 13:36 02:26 10:48 21:26 04:06 09:18 02:30 12:44 09:30
Maximum _ 11,5 C 10,0 C 98 % 1027,4 hPa 1,4 l/m 0,03 h 0,03 h 320 W/m 48,1 km/h
O-SO (6 Bft)
Durchschnitt _ 5,1 C 3,8 C 90 % 1015,2 hPa #5,8 l/m #14:42 h #9:55 h 90 W/m 16,7 km/h (3 Bft)
© 2015 W. Hausmann